createdAt,value
2019-01-30T00:01:31.237Z,-2.25
2019-01-30T00:04:22.646Z,-2.18
2019-01-30T00:07:12.422Z,-2.13
2019-01-30T00:10:02.600Z,-2.06
2019-01-30T00:12:52.897Z,-2.13
2019-01-30T00:15:34.282Z,-2.22
2019-01-30T00:18:05.506Z,-2.37
2019-01-30T00:20:55.783Z,-2.35
2019-01-30T00:23:27.194Z,-2.22
2019-01-30T00:25:57.737Z,-2.29
2019-01-30T00:28:49.906Z,-2.28
2019-01-30T00:31:39.646Z,-2.32
2019-01-30T00:34:29.312Z,-2.30
2019-01-30T00:37:18.694Z,-2.38
2019-01-30T00:40:09.046Z,-2.45
2019-01-30T00:42:59.021Z,-2.44
2019-01-30T00:45:48.447Z,-2.40
2019-01-30T00:48:38.192Z,-2.36
2019-01-30T00:51:28.217Z,-2.30
2019-01-30T00:54:18.197Z,-2.27
2019-01-30T00:56:48.676Z,-3.23
2019-01-30T00:59:38.524Z,-2.28
2019-01-30T01:02:09.096Z,-2.33
2019-01-30T01:04:40.422Z,-2.29
2019-01-30T01:10:08.592Z,-2.21
2019-01-30T01:12:39.097Z,-2.30
2019-01-30T01:15:20.744Z,-2.21
2019-01-30T01:18:02.935Z,-2.34
2019-01-30T01:20:33.722Z,-2.34
2019-01-30T01:23:18.169Z,-2.32
2019-01-30T01:25:55.541Z,-2.32
2019-01-30T01:28:45.735Z,-2.28
2019-01-30T01:31:16.441Z,-2.19
2019-01-30T01:33:46.921Z,-2.25
2019-01-30T01:36:36.424Z,-2.10
2019-01-30T01:39:25.850Z,-2.07
2019-01-30T01:42:15.535Z,-2.09
2019-01-30T01:45:08.034Z,-2.14
2019-01-30T01:47:57.857Z,-2.03
2019-01-30T01:50:47.291Z,-3.06
2019-01-30T01:53:37.173Z,-2.11
2019-01-30T01:56:27.258Z,-2.10
2019-01-30T01:59:17.267Z,-2.02
2019-01-30T02:02:07.147Z,-1.98
2019-01-30T02:04:57.000Z,-1.88
2019-01-30T02:08:02.606Z,-1.85
2019-01-30T02:10:35.757Z,-1.81
2019-01-30T02:13:06.704Z,-1.72
2019-01-30T02:15:56.686Z,-1.72
2019-01-30T02:18:46.165Z,-1.72
2019-01-30T02:21:36.133Z,-1.73
2019-01-30T02:24:25.715Z,-1.64
2019-01-30T02:27:15.819Z,-1.56
2019-01-30T02:30:07.758Z,-1.49
2019-01-30T02:32:57.551Z,-1.41
2019-01-30T02:35:47.003Z,-1.40
2019-01-30T02:38:36.823Z,-1.38
2019-01-30T02:41:26.391Z,-1.39
2019-01-30T02:44:16.489Z,-1.35
2019-01-30T02:47:05.863Z,-1.35
2019-01-30T02:49:56.157Z,-1.27
2019-01-30T02:52:38.537Z,-1.20
2019-01-30T02:55:19.707Z,-1.14
2019-01-30T02:58:09.229Z,-1.20
2019-01-30T03:00:59.684Z,-1.18
2019-01-30T03:04:08.061Z,-1.17
2019-01-30T03:07:01.586Z,-1.18
2019-01-30T03:09:32.075Z,-1.16
2019-01-30T03:12:23.165Z,-1.12
2019-01-30T03:14:55.821Z,-1.11
2019-01-30T03:17:45.744Z,-1.10
2019-01-30T03:20:18.391Z,-1.07
2019-01-30T03:23:08.141Z,-1.05
2019-01-30T03:25:57.846Z,-1.00
2019-01-30T03:28:47.532Z,-1.00
2019-01-30T03:34:13.529Z,-0.93
2019-01-30T03:37:04.288Z,-0.93
2019-01-30T03:39:53.973Z,-0.92
2019-01-30T03:42:43.455Z,-0.90
2019-01-30T03:45:34.731Z,-0.87
2019-01-30T03:48:24.153Z,-0.82
2019-01-30T03:51:04.338Z,-0.85
2019-01-30T03:53:54.013Z,-0.81
2019-01-30T03:56:44.015Z,-0.77
2019-01-30T03:59:34.037Z,-0.78
2019-01-30T04:02:05.056Z,-0.72
2019-01-30T04:04:35.703Z,-0.70
2019-01-30T04:07:06.265Z,-0.75
2019-01-30T04:09:55.957Z,-0.74
2019-01-30T04:12:45.443Z,-0.76
2019-01-30T04:15:35.209Z,-0.78
2019-01-30T04:18:24.706Z,-0.71
2019-01-30T04:21:14.161Z,-0.73
2019-01-30T04:24:05.983Z,-1.16
2019-01-30T04:26:36.918Z,-0.56
2019-01-30T04:29:07.307Z,-0.62
2019-01-30T04:31:38.670Z,-0.61
2019-01-30T04:34:29.194Z,-0.64
2019-01-30T04:37:18.899Z,-0.60
2019-01-30T04:40:09.914Z,-0.53
2019-01-30T04:42:59.629Z,-0.55
2019-01-30T04:45:49.278Z,-0.49
2019-01-30T04:48:41.000Z,-0.50
2019-01-30T04:51:11.503Z,-0.36
2019-01-30T04:54:01.338Z,-0.41
2019-01-30T04:56:31.701Z,-0.44
2019-01-30T04:59:21.477Z,-0.33
2019-01-30T05:02:11.605Z,-0.34
2019-01-30T05:05:01.174Z,-0.26
2019-01-30T05:07:50.787Z,-0.31
2019-01-30T05:10:43.314Z,-0.22
2019-01-30T05:13:32.998Z,-0.26
2019-01-30T05:16:22.798Z,-0.22
2019-01-30T05:19:12.209Z,-0.26
2019-01-30T05:22:02.109Z,-0.12
2019-01-30T05:24:51.743Z,0.06
2019-01-30T05:27:22.656Z,-0.12
2019-01-30T05:30:13.773Z,-0.20
2019-01-30T05:32:44.582Z,-0.30
2019-01-30T05:35:15.011Z,-0.32
2019-01-30T05:38:05.913Z,-0.27
2019-01-30T05:40:58.025Z,-0.16
2019-01-30T05:43:28.905Z,-0.19
2019-01-30T05:45:59.638Z,-0.14
2019-01-30T05:48:30.539Z,-0.10
2019-01-30T05:51:20.467Z,-0.14
2019-01-30T05:53:51.558Z,-0.12
2019-01-30T05:56:22.178Z,-0.14
2019-01-30T05:58:52.631Z,-0.15
2019-01-30T06:01:42.229Z,-0.17
2019-01-30T06:04:48.626Z,-0.16
2019-01-30T06:14:09.678Z,-0.12
2019-01-30T06:16:51.534Z,-0.13
2019-01-30T06:19:32.901Z,-0.09
2019-01-30T06:22:03.737Z,-0.10
2019-01-30T06:24:54.277Z,-0.10
2019-01-30T06:27:43.767Z,-0.01
2019-01-30T06:30:35.474Z,-0.03
2019-01-30T06:33:43.858Z,-0.03
2019-01-30T06:36:14.320Z,-0.03
2019-01-30T06:39:05.814Z,0.06
2019-01-30T06:41:36.310Z,0.09
2019-01-30T06:44:25.736Z,0.05
2019-01-30T06:46:56.373Z,0.02
2019-01-30T06:49:26.842Z,-0.01
2019-01-30T06:51:57.748Z,0.09
2019-01-30T06:54:47.395Z,0.04
2019-01-30T06:57:17.819Z,0.06
2019-01-30T07:00:00.475Z,0.03
2019-01-30T07:02:42.092Z,0.01
2019-01-30T07:08:04.534Z,0.21
2019-01-30T07:10:54.285Z,0.21
2019-01-30T07:13:44.939Z,0.18
2019-01-30T07:16:34.349Z,0.13
2019-01-30T07:19:24.142Z,0.16
2019-01-30T07:24:46.257Z,0.10
2019-01-30T07:27:35.764Z,0.16
2019-01-30T07:30:26.700Z,0.21
2019-01-30T07:32:57.484Z,0.16
2019-01-30T07:35:28.181Z,0.13
2019-01-30T07:37:58.966Z,0.22
2019-01-30T07:40:29.456Z,0.28
2019-01-30T07:42:59.930Z,0.33
2019-01-30T07:45:49.343Z,0.40
2019-01-30T07:48:38.975Z,0.50
2019-01-30T07:51:09.585Z,0.48
2019-01-30T07:54:01.474Z,0.46
2019-01-30T07:56:31.968Z,0.40
2019-01-30T07:59:21.663Z,0.47
2019-01-30T08:02:11.072Z,0.64
2019-01-30T08:05:00.917Z,0.62
2019-01-30T08:07:31.483Z,0.61
2019-01-30T08:10:03.238Z,0.63
2019-01-30T08:12:52.622Z,0.60
2019-01-30T08:15:42.181Z,0.60
2019-01-30T08:18:31.919Z,0.61
2019-01-30T08:21:21.514Z,0.69
2019-01-30T08:24:11.223Z,0.74
2019-01-30T08:26:41.930Z,0.85
2019-01-30T08:29:12.712Z,0.82
2019-01-30T08:31:43.520Z,1.00
2019-01-30T08:34:14.173Z,1.09
2019-01-30T08:36:45.719Z,1.14
2019-01-30T08:39:35.359Z,1.19
2019-01-30T08:42:24.774Z,1.25
2019-01-30T08:44:59.942Z,1.31
2019-01-30T08:47:32.511Z,1.43
2019-01-30T08:50:22.523Z,1.45
2019-01-30T08:53:04.625Z,1.52
2019-01-30T08:55:35.984Z,1.65
2019-01-30T08:58:25.473Z,1.74
2019-01-30T09:00:56.537Z,1.79
2019-01-30T09:03:27.013Z,1.99
2019-01-30T09:06:17.045Z,2.06
2019-01-30T09:09:08.789Z,2.01
2019-01-30T09:11:58.471Z,2.13
2019-01-30T09:14:28.934Z,2.19
2019-01-30T09:17:18.628Z,2.21
2019-01-30T09:19:49.719Z,2.22
2019-01-30T09:22:40.008Z,2.19
2019-01-30T09:25:12.210Z,2.23
2019-01-30T09:27:43.596Z,2.28
2019-01-30T09:30:34.243Z,2.38
2019-01-30T09:33:25.860Z,2.44
2019-01-30T09:36:16.180Z,2.57
2019-01-30T09:39:08.839Z,2.65
2019-01-30T09:41:39.434Z,2.70
2019-01-30T09:44:10.524Z,2.65
2019-01-30T09:46:40.970Z,2.82
2019-01-30T09:49:30.428Z,2.95
2019-01-30T09:52:01.190Z,3.10
2019-01-30T09:54:31.820Z,3.17
2019-01-30T09:57:02.606Z,3.28
2019-01-30T09:59:33.319Z,3.37
2019-01-30T10:02:25.327Z,3.35
2019-01-30T10:04:56.776Z,3.40
2019-01-30T10:07:27.455Z,3.47
2019-01-30T10:09:58.139Z,3.55
2019-01-30T10:12:29.202Z,3.55
2019-01-30T10:14:59.615Z,3.63
2019-01-30T10:17:31.111Z,3.80
2019-01-30T10:20:01.612Z,3.92
2019-01-30T10:22:32.110Z,3.99
2019-01-30T10:25:02.831Z,4.13
2019-01-30T10:27:33.256Z,4.23
2019-01-30T10:33:25.051Z,4.42
2019-01-30T10:35:55.617Z,4.58
2019-01-30T10:38:26.380Z,4.62
2019-01-30T10:40:57.043Z,4.82
2019-01-30T10:43:46.794Z,4.82
2019-01-30T10:46:17.221Z,4.83
2019-01-30T10:48:47.848Z,4.72
2019-01-30T10:51:18.538Z,4.65
2019-01-30T10:53:49.452Z,4.68
2019-01-30T10:56:20.461Z,4.65
2019-01-30T10:58:50.950Z,4.55
2019-01-30T11:01:40.387Z,4.53
2019-01-30T11:04:11.213Z,4.55
2019-01-30T11:06:41.599Z,4.50
2019-01-30T11:09:12.511Z,4.30
2019-01-30T11:12:02.244Z,4.35
2019-01-30T11:14:33.110Z,4.36
2019-01-30T11:17:23.876Z,4.35
2019-01-30T11:19:54.304Z,4.45
2019-01-30T11:22:24.725Z,4.45
2019-01-30T11:24:55.865Z,4.44
2019-01-30T11:27:26.369Z,4.57
2019-01-30T11:29:56.862Z,4.69
2019-01-30T11:32:46.564Z,4.66
2019-01-30T11:35:17.332Z,4.53
2019-01-30T11:38:08.840Z,4.42
2019-01-30T11:40:40.712Z,4.42
2019-01-30T11:43:30.559Z,4.37
2019-01-30T11:46:01.683Z,4.33
2019-01-30T11:48:56.403Z,4.25
2019-01-30T11:51:24.113Z,4.31
2019-01-30T11:53:54.813Z,4.34
2019-01-30T11:56:25.357Z,4.33
2019-01-30T11:59:15.077Z,4.31
2019-01-30T12:05:41.339Z,4.26
2019-01-30T12:10:52.536Z,4.15
2019-01-30T12:13:23.171Z,4.12
2019-01-30T12:15:57.393Z,4.18
2019-01-30T12:18:28.702Z,4.33
2019-01-30T12:20:59.528Z,4.48
2019-01-30T12:23:29.915Z,4.65
2019-01-30T12:26:00.386Z,4.66
2019-01-30T12:28:30.792Z,4.44
2019-01-30T12:31:02.510Z,4.19
2019-01-30T12:33:33.038Z,4.15
2019-01-30T12:36:04.299Z,4.08
2019-01-30T12:38:34.826Z,4.12
2019-01-30T12:41:05.762Z,4.21
2019-01-30T12:43:36.157Z,4.29
2019-01-30T12:46:06.891Z,4.45
2019-01-30T12:48:40.523Z,4.52
2019-01-30T12:51:10.999Z,4.59
2019-01-30T12:56:24.249Z,4.61
2019-01-30T12:58:54.778Z,4.81
2019-01-30T13:01:25.547Z,4.63
2019-01-30T13:04:17.369Z,4.39
2019-01-30T13:07:07.040Z,4.29
2019-01-30T13:09:37.406Z,4.44
2019-01-30T13:12:08.395Z,4.54
2019-01-30T13:14:58.181Z,4.43
2019-01-30T13:17:29.571Z,4.25
2019-01-30T13:20:00.712Z,4.32
2019-01-30T13:22:52.153Z,4.21
2019-01-30T13:25:31.789Z,4.08
2019-01-30T13:28:02.609Z,4.13
2019-01-30T13:30:38.014Z,4.16
2019-01-30T13:33:28.748Z,4.25
2019-01-30T13:35:59.368Z,4.27
2019-01-30T13:38:30.334Z,4.13
2019-01-30T13:41:01.383Z,4.09
2019-01-30T13:43:51.051Z,4.08
2019-01-30T13:46:21.513Z,4.13
2019-01-30T13:48:52.133Z,4.25
2019-01-30T13:51:41.869Z,4.41
2019-01-30T13:54:24.023Z,4.38
2019-01-30T13:56:54.975Z,4.37
2019-01-30T13:59:46.185Z,4.46
2019-01-30T14:02:17.104Z,4.48
2019-01-30T14:04:59.355Z,4.24
2019-01-30T14:07:42.221Z,4.28
2019-01-30T14:10:13.156Z,4.21
2019-01-30T14:12:43.967Z,3.98
2019-01-30T14:15:19.649Z,3.91
2019-01-30T14:17:50.493Z,3.85
2019-01-30T14:20:21.331Z,3.90
2019-01-30T14:22:51.976Z,3.87
2019-01-30T14:25:42.261Z,3.83
2019-01-30T14:28:13.060Z,3.76
2019-01-30T14:30:43.438Z,3.44
2019-01-30T14:33:13.825Z,3.37
2019-01-30T14:36:05.795Z,3.44
2019-01-30T14:38:37.226Z,3.29
2019-01-30T14:41:07.610Z,3.29
2019-01-30T14:43:57.247Z,3.38
2019-01-30T14:46:46.852Z,3.40
2019-01-30T14:49:17.368Z,3.14
2019-01-30T14:52:06.751Z,3.10
2019-01-30T14:54:56.536Z,3.12
2019-01-30T14:57:46.315Z,2.99
2019-01-30T15:00:20.223Z,2.76
2019-01-30T15:03:11.486Z,2.58
2019-01-30T15:06:01.010Z,2.50
2019-01-30T15:08:51.150Z,2.42
2019-01-30T15:11:21.678Z,2.25
2019-01-30T15:14:11.186Z,2.15
2019-01-30T15:17:01.008Z,2.18
2019-01-30T15:19:50.676Z,2.12
2019-01-30T15:22:40.302Z,2.15
2019-01-30T15:25:57.294Z,2.22
2019-01-30T15:28:46.770Z,2.14
2019-01-30T15:31:17.709Z,2.11
2019-01-30T15:34:07.184Z,2.16
2019-01-30T15:36:57.323Z,2.18
2019-01-30T15:39:47.199Z,2.14
2019-01-30T15:42:18.016Z,2.03
2019-01-30T15:44:48.498Z,2.04
2019-01-30T15:47:20.897Z,2.09
2019-01-30T15:49:52.022Z,2.07
2019-01-30T15:52:41.562Z,2.03
2019-01-30T15:55:31.735Z,2.02
2019-01-30T15:58:21.553Z,1.28
2019-01-30T16:01:30.398Z,1.95
2019-01-30T16:04:20.002Z,1.95
2019-01-30T16:07:10.063Z,1.89
2019-01-30T16:09:40.678Z,1.84
2019-01-30T16:12:30.155Z,1.82
2019-01-30T16:15:24.863Z,1.79
2019-01-30T16:17:55.696Z,1.83
2019-01-30T16:20:45.361Z,1.79
2019-01-30T16:23:34.853Z,1.78
2019-01-30T16:26:05.668Z,1.84
2019-01-30T16:28:57.579Z,1.78
2019-01-30T16:31:47.296Z,1.79
2019-01-30T16:34:17.972Z,1.73
2019-01-30T16:36:48.883Z,1.66
2019-01-30T16:39:38.629Z,1.75
2019-01-30T16:42:31.645Z,1.69
2019-01-30T16:45:45.033Z,1.73
2019-01-30T16:48:37.287Z,1.66
2019-01-30T16:54:59.460Z,1.73
2019-01-30T16:57:49.496Z,1.80
2019-01-30T17:03:49.376Z,1.80
2019-01-30T17:06:39.026Z,1.82
2019-01-30T17:09:47.349Z,1.83
2019-01-30T17:18:44.485Z,1.72
2019-01-30T17:21:55.967Z,1.69
2019-01-30T17:28:27.092Z,1.76
2019-01-30T17:34:28.274Z,1.82
2019-01-30T17:45:22.108Z,1.56
2019-01-30T17:48:04.180Z,1.56
2019-01-30T17:50:45.869Z,1.50
2019-01-30T17:53:27.311Z,0.71
2019-01-30T17:55:58.106Z,0.75
2019-01-30T17:58:47.954Z,1.31
2019-01-30T18:01:39.937Z,1.30
2019-01-30T18:04:29.838Z,1.29
2019-01-30T18:07:00.780Z,0.45
2019-01-30T18:09:51.532Z,1.26
2019-01-30T18:12:22.189Z,1.23
2019-01-30T18:14:53.790Z,1.25
2019-01-30T18:17:43.523Z,1.19
2019-01-30T18:20:51.970Z,1.18
2019-01-30T18:23:22.592Z,1.12
2019-01-30T18:26:12.243Z,1.06
2019-01-30T18:28:42.812Z,1.01
2019-01-30T18:31:33.704Z,0.89
2019-01-30T18:34:06.334Z,0.88
2019-01-30T18:36:56.061Z,0.78
2019-01-30T18:39:45.752Z,0.77
2019-01-30T18:42:35.731Z,0.76
2019-01-30T18:45:25.803Z,0.67
2019-01-30T18:48:15.433Z,0.57
2019-01-30T18:51:05.264Z,0.38
2019-01-30T18:53:38.088Z,0.32
2019-01-30T18:56:08.943Z,0.23
2019-01-30T18:58:53.393Z,0.32
2019-01-30T19:01:24.213Z,0.33
2019-01-30T19:04:16.622Z,0.33
2019-01-30T19:06:52.396Z,0.32
2019-01-30T19:09:42.432Z,0.27
2019-01-30T19:12:31.973Z,0.33
2019-01-30T19:17:58.380Z,0.53
2019-01-30T19:20:48.939Z,0.65
2019-01-30T19:23:38.944Z,0.58
2019-01-30T19:29:41.888Z,0.59
2019-01-30T19:32:33.762Z,0.59
2019-01-30T19:35:44.419Z,0.64
2019-01-30T19:38:15.226Z,0.59
2019-01-30T19:41:05.105Z,0.64
2019-01-30T19:43:54.606Z,0.68
2019-01-30T19:46:44.450Z,0.78
2019-01-30T19:52:57.762Z,0.77
2019-01-30T19:55:36.781Z,0.71
2019-01-30T19:58:19.596Z,0.78
2019-01-30T20:01:01.891Z,0.82
2019-01-30T20:03:53.083Z,0.80
2019-01-30T20:12:51.546Z,0.23
2019-01-30T20:15:41.452Z,0.87
2019-01-30T20:18:52.926Z,0.51
2019-01-30T20:21:43.683Z,0.88
2019-01-30T20:24:14.486Z,0.74
2019-01-30T20:27:06.681Z,0.61
2019-01-30T20:33:00.076Z,0.34
2019-01-30T20:35:43.549Z,0.24
2019-01-30T20:38:32.440Z,0.25
2019-01-30T20:41:05.423Z,0.16
2019-01-30T20:43:36.153Z,0.03
2019-01-30T20:46:28.259Z,-0.11
2019-01-30T20:49:19.464Z,-0.11
2019-01-30T20:52:09.384Z,-0.13
2019-01-30T20:55:17.738Z,-0.19
2019-01-30T20:57:48.647Z,-0.33
2019-01-30T21:00:38.853Z,-0.46
2019-01-30T21:03:28.909Z,-0.55
2019-01-30T21:06:10.715Z,-0.57
2019-01-30T21:08:51.216Z,-0.69
2019-01-30T21:11:22.462Z,-0.79
2019-01-30T21:13:53.017Z,-0.77
2019-01-30T21:16:43.371Z,-0.77
2019-01-30T21:19:33.622Z,-0.80
2019-01-30T21:22:24.657Z,-0.95
2019-01-30T21:25:15.351Z,-0.83
2019-01-30T21:28:05.196Z,-0.84
2019-01-30T21:30:58.719Z,-0.86
2019-01-30T21:33:37.179Z,-0.86
2019-01-30T21:36:07.758Z,-0.90
2019-01-30T21:38:57.442Z,-0.89
2019-01-30T21:41:28.073Z,-0.88
2019-01-30T21:44:19.672Z,-0.97
2019-01-30T21:46:50.738Z,-0.97
2019-01-30T21:49:21.345Z,-0.98
2019-01-30T21:52:11.259Z,-0.92
2019-01-30T21:55:01.401Z,-0.91
2019-01-30T21:57:50.981Z,-0.81
2019-01-30T22:00:40.929Z,-0.80
2019-01-30T22:06:30.575Z,-0.97
2019-01-30T22:09:10.878Z,-1.01
2019-01-30T22:12:00.777Z,-1.04
2019-01-30T22:14:33.343Z,-1.10
2019-01-30T22:17:03.982Z,-1.04
2019-01-30T22:19:53.529Z,-1.03
2019-01-30T22:22:43.332Z,-1.10
2019-01-30T22:25:32.961Z,-1.11
2019-01-30T22:28:24.400Z,-1.20
2019-01-30T22:31:14.905Z,-1.29
2019-01-30T22:34:05.428Z,-1.35
2019-01-30T22:36:55.482Z,-1.38
2019-01-30T22:39:46.162Z,-1.37
2019-01-30T22:42:35.621Z,-1.69
2019-01-30T22:45:07.170Z,-1.48
2019-01-30T22:47:56.749Z,-1.47
2019-01-30T22:50:46.469Z,-1.50
2019-01-30T22:53:36.002Z,-1.54
2019-01-30T22:56:06.845Z,-1.55
2019-01-30T22:58:47.304Z,-1.62
2019-01-30T23:01:59.832Z,-1.61
2019-01-30T23:05:08.305Z,-1.62
2019-01-30T23:08:23.278Z,-1.75
2019-01-30T23:11:27.114Z,-1.67
2019-01-30T23:14:35.891Z,-1.76
2019-01-30T23:17:44.262Z,-1.83
2019-01-30T23:20:53.094Z,-1.85
2019-01-30T23:24:01.693Z,-1.86
2019-01-30T23:26:56.959Z,-1.94
2019-01-30T23:30:05.435Z,-2.00
2019-01-30T23:33:13.861Z,-2.02
2019-01-30T23:36:22.205Z,-2.06
2019-01-30T23:39:30.494Z,-2.05
2019-01-30T23:42:38.955Z,-2.05
2019-01-30T23:45:47.555Z,-2.05
2019-01-30T23:48:43.712Z,-2.18
2019-01-30T23:51:52.101Z,-2.22
2019-01-30T23:55:02.915Z,-2.10
2019-01-30T23:57:44.691Z,-2.97
